Hlavní strana
METAR-TAF:

METAR-TAF

Letiště :

Hagåtña, Guam, Spojené státy americké

zeměpisná šířka: 13-29N, zeměpisná délka: 144-48E, výška: 91 m

Aktuální stav počasí

Zpráva byla vytvořena před 1 hodinou a 3 minutami, v 11:54 UTC
Východní vítr 3 kt
Teplota 27°C
Vlhkost vzduchu 100%
Tlak 1010 hPa
Viditelnost: 16.1 km
Skoro jasno ve výšce 3100 ft

METAR: PGUM 251154Z 10003KT 10SM FEW031 27/27 A2982 RMK AO2 SLP089 70068 T02670267 10283 20261 51015

Čas: 22:57 (12:57 UTC)

Předpověď počasí

Zpráva byla vytvořena před 1 hodinou a 37 minutami, v 11:20 UTC
Předpověď platná od 25 v 12 UTC do 26 v 18 UTC
Jihojihozápadní vítr 7 kt
Viditelnost: 10 km
Polojasno ve výšce 92000 ft
přeháňky v blízkosti

TAF: PGUM 251120Z 2512/2618 20007KT P6SM VCSH SCT920

Stav a předpovědi počasí z více než 4 000 letišť (zprávy METAR a TAF).

Červené a žluté tečky na mapě představují dostupné meteorologické stanice.

Když kurzor umístíte na tečku, zobrazí se název stanice.

Pak kliknutím zobrazíte stav a předpověď počasí.

Chcete-li změnit mapu, kliknutím na zelené tlačítko se znaménkem +mapu přiblížíte, kliknutím na zelené tlačítko se znaménkem – mapu oddálíte a kliknutím na zelené šipky přejdete na sousední mapy.


METAR-TAF: